Time;durP1;ratioP1;P1;durP2;ratioP2;P2;SDS_P1;SDS_P2;PMS_P1;PMS_P2;Temp;Humidity;BMP_temperature;BMP_pressure;BME280_temperature;BME280_humidity;BME280_pressure;Samples;Min_cycle;Max_cycle;Signal;HPM_P1;HPM_P2
2024/01/08 02:43:40;;;;;;;26.70;11.10;;;;;;;-8.64;72.41;99894.58;107117;1311;545754;-38
2024/01/08 02:46:05;;;;;;;24.30;11.30;;;;;;;-8.78;72.12;99895.48;107614;1311;22932;-38
2024/01/08 02:48:31;;;;;;;25.40;11.50;;;;;;;-8.76;72.56;99897.77;107606;1311;22351;-37
2024/01/08 02:50:56;;;;;;;31.90;11.20;;;;;;;-8.76;72.47;99901.15;107619;1311;23075;-38
2024/01/08 02:53:21;;;;;;;24.80;11.70;;;;;;;-8.75;72.81;99901.87;107642;1292;24805;-39
2024/01/08 02:55:47;;;;;;;23.00;10.30;;;;;;;-8.75;72.40;99905.09;107614;1311;23527;-41
2024/01/08 02:58:12;;;;;;;20.50;10.10;;;;;;;-8.67;73.04;99909.24;107562;1308;305889;-38
2024/01/08 03:00:37;;;;;;;31.30;11.00;;;;;;;-8.75;72.41;99912.23;107834;1308;22226;-41
2024/01/08 03:03:03;;;;;;;29.00;11.60;;;;;;;-8.68;72.59;99904.64;107818;1308;23276;-39
2024/01/08 03:05:28;;;;;;;21.70;10.50;;;;;;;-8.58;73.05;99909.04;107819;1308;22264;-41
2024/01/08 03:07:53;;;;;;;21.00;9.70;;;;;;;-8.58;72.23;99912.59;107818;1308;22244;-37
2024/01/08 03:10:19;;;;;;;24.50;10.60;;;;;;;-8.58;72.14;99910.55;107836;1308;22246;-40
2024/01/08 03:12:44;;;;;;;23.60;10.40;;;;;;;-8.56;72.46;99908.59;107819;1308;22243;-38
2024/01/08 03:15:09;;;;;;;24.30;10.50;;;;;;;-8.55;72.50;99912.18;107818;1308;22245;-38
2024/01/08 03:17:35;;;;;;;25.70;11.50;;;;;;;-8.50;72.67;99914.89;107806;1308;22445;-41
2024/01/08 03:20:02;;;;;;;25.70;10.50;;;;;;;-8.42;72.91;99920.39;107820;1308;23045;-38
2024/01/08 03:22:27;;;;;;;21.40;9.20;;;;;;;-8.50;72.51;99927.29;107817;1308;22407;-40
2024/01/08 03:24:52;;;;;;;25.10;11.10;;;;;;;-8.52;73.03;99931.48;107822;1308;22338;-36
2024/01/08 03:27:17;;;;;;;23.70;10.50;;;;;;;-8.49;73.27;99934.83;107819;1308;22262;-41
2024/01/08 03:29:43;;;;;;;24.30;11.20;;;;;;;-8.52;73.39;99941.20;107825;1308;22238;-37
2024/01/08 03:32:09;;;;;;;23.80;12.00;;;;;;;-8.47;73.92;99937.77;107842;1308;22931;-36
2024/01/08 03:34:34;;;;;;;23.90;11.20;;;;;;;-8.46;74.06;99945.77;107847;1308;22404;-38
2024/01/08 03:37:00;;;;;;;25.70;11.20;;;;;;;-8.56;73.62;99951.10;107861;1308;22920;-41
2024/01/08 03:39:25;;;;;;;23.40;10.30;;;;;;;-8.52;73.77;99953.59;107861;1308;22349;-39
2024/01/08 03:41:50;;;;;;;26.70;11.90;;;;;;;-8.63;73.69;99948.98;107869;1308;22423;-39
2024/01/08 03:44:16;;;;;;;24.90;10.10;;;;;;;-8.57;73.62;99947.30;107861;1308;22384;-37
2024/01/08 03:46:42;;;;;;;23.40;11.10;;;;;;;-8.70;73.58;99953.87;107826;1305;22272;-40
2024/01/08 03:49:08;;;;;;;26.70;11.20;;;;;;;-8.82;73.67;99953.98;107784;1309;22232;-38
2024/01/08 03:51:34;;;;;;;25.40;11.50;;;;;;;-8.76;73.92;99953.48;107816;1309;22979;-38
2024/01/08 03:54:00;;;;;;;24.80;11.20;;;;;;;-8.78;74.21;99955.45;107778;1309;22905;-43
2024/01/08 03:56:25;;;;;;;25.10;11.30;;;;;;;-8.82;74.04;99956.88;107742;1309;23078;-38
2024/01/08 03:58:51;;;;;;;27.70;12.20;;;;;;;-8.95;74.07;99960.67;107685;1309;22289;-40
2024/01/08 04:01:16;;;;;;;34.10;11.40;;;;;;;-8.91;74.26;99965.09;107698;1309;22272;-40
2024/01/08 04:03:42;;;;;;;22.20;10.80;;;;;;;-8.98;74.33;99970.45;107715;1309;22392;-39
2024/01/08 04:06:07;;;;;;;23.70;11.00;;;;;;;-8.93;74.42;99967.38;107683;1309;22190;-37
2024/01/08 04:08:33;;;;;;;29.70;11.70;;;;;;;-8.92;74.48;99966.40;107731;1309;22270;-39
2024/01/08 04:10:58;;;;;;;27.50;11.60;;;;;;;-8.89;74.68;99968.20;107731;1309;22266;-41
2024/01/08 04:13:24;;;;;;;24.70;11.70;;;;;;;-8.84;74.40;99976.52;107744;1309;23067;-41
2024/01/08 04:15:49;;;;;;;26.50;11.80;;;;;;;-8.85;74.52;99982.42;107473;1308;22343;-40
2024/01/08 04:18:15;;;;;;;25.60;12.00;;;;;;;-8.83;74.35;99986.75;107790;1308;22343;-37
2024/01/08 04:20:40;;;;;;;22.40;10.40;;;;;;;-8.78;74.29;99988.27;107790;1308;22505;-36
2024/01/08 04:23:06;;;;;;;22.50;10.30;;;;;;;-8.81;74.08;99986.83;107795;1308;22237;-38
2024/01/08 04:25:31;;;;;;;24.60;11.30;;;;;;;-8.91;73.56;99989.39;107832;1308;22416;-41
2024/01/08 04:27:56;;;;;;;27.80;11.40;;;;;;;-8.94;73.83;99992.99;107798;1308;23027;-41
2024/01/08 04:30:22;;;;;;;30.00;12.70;;;;;;;-9.04;73.69;99995.88;107796;1308;22242;-41
2024/01/08 04:32:47;;;;;;;27.90;11.90;;;;;;;-9.15;73.78;100001.80;107790;1308;22342;-37
2024/01/08 04:35:12;;;;;;;28.70;11.50;;;;;;;-9.31;74.02;100005.15;107840;1308;22263;-37
2024/01/08 04:37:38;;;;;;;27.50;11.60;;;;;;;-9.24;74.38;100008.29;107839;1308;23024;-38
2024/01/08 04:40:04;;;;;;;24.40;11.90;;;;;;;-9.18;74.68;100010.86;107830;1308;23161;-40
2024/01/08 04:42:29;;;;;;;23.80;10.90;;;;;;;-9.12;74.59;100010.20;107850;1308;22244;-41
2024/01/08 04:44:54;;;;;;;27.40;12.60;;;;;;;-9.05;74.69;100011.65;107835;1308;22449;-39
2024/01/08 04:47:20;;;;;;;28.60;11.70;;;;;;;-9.07;74.50;100007.84;107850;1308;22369;-42
2024/01/08 04:49:45;;;;;;;30.00;12.40;;;;;;;-8.99;74.40;100012.20;107836;1308;23183;-39
2024/01/08 04:52:11;;;;;;;25.50;12.60;;;;;;;-9.11;73.82;100016.23;107821;1308;25342;-40
2024/01/08 04:54:36;;;;;;;27.80;12.50;;;;;;;-9.09;74.06;100023.08;107813;1308;23279;-40
2024/01/08 04:57:02;;;;;;;30.60;12.90;;;;;;;-9.15;74.06;100026.57;107852;1308;22378;-37
2024/01/08 04:59:28;;;;;;;30.90;13.00;;;;;;;-9.19;73.98;100026.63;107821;1308;22242;-38
2024/01/08 05:01:53;;;;;;;28.30;12.50;;;;;;;-9.18;73.82;100030.76;107841;1308;22576;-39
2024/01/08 05:04:18;;;;;;;26.70;11.50;;;;;;;-9.21;73.56;100030.46;107824;1308;23175;-38
2024/01/08 05:06:44;;;;;;;25.60;12.00;;;;;;;-9.22;73.50;100035.66;107840;1308;22508;-41
2024/01/08 05:09:10;;;;;;;26.50;11.10;;;;;;;-9.27;73.45;100040.60;107844;1308;22901;-38
2024/01/08 05:11:36;;;;;;;27.20;12.00;;;;;;;-9.24;73.73;100043.39;107830;1308;23016;-40
2024/01/08 05:14:04;;;;;;;23.90;11.80;;;;;;;-9.34;73.55;100049.17;107839;1308;22238;-40
2024/01/08 05:16:29;;;;;;;31.70;12.50;;;;;;;-9.44;73.58;100056.59;107842;1308;22650;-38
2024/01/08 05:18:54;;;;;;;35.40;12.70;;;;;;;-9.44;74.12;100056.46;107811;1286;23046;-40
2024/01/08 05:21:20;;;;;;;23.30;11.10;;;;;;;-9.39;74.23;100057.29;107830;1308;22957;-38
2024/01/08 05:23:46;;;;;;;29.30;13.10;;;;;;;-9.39;74.08;100057.30;107852;1308;22485;-39
2024/01/08 05:26:11;;;;;;;23.80;11.70;;;;;;;-9.54;74.02;100059.82;107836;1285;22438;-39
2024/01/08 05:28:36;;;;;;;31.10;13.40;;;;;;;-9.53;74.29;100062.92;107831;1308;22460;-38
2024/01/08 05:31:02;;;;;;;22.40;11.60;;;;;;;-9.59;74.54;100065.41;107836;1308;22927;-38
2024/01/08 05:33:27;;;;;;;25.90;12.50;;;;;;;-9.57;74.38;100063.28;107843;1308;22899;-37
2024/01/08 05:35:53;;;;;;;27.50;11.80;;;;;;;-9.49;74.39;100064.59;107836;1308;22204;-39
2024/01/08 05:38:19;;;;;;;28.20;13.20;;;;;;;-9.57;74.25;100071.08;107856;1308;22234;-42
2024/01/08 05:40:44;;;;;;;27.10;12.20;;;;;;;-9.61;74.25;100072.63;107836;1308;23025;-41
2024/01/08 05:43:09;;;;;;;31.20;12.30;;;;;;;-9.60;74.30;100075.36;107834;1308;22260;-39
2024/01/08 05:45:35;;;;;;;27.70;12.10;;;;;;;-9.69;74.36;100074.20;107843;1308;22454;-38
2024/01/08 05:48:00;;;;;;;28.80;12.40;;;;;;;-9.64;74.52;100080.16;107839;1308;23251;-41
2024/01/08 05:50:28;;;;;;;30.60;13.00;;;;;;;-9.62;74.67;100082.58;107751;1308;22991;-39
2024/01/08 05:52:54;;;;;;;22.60;11.30;;;;;;;-9.60;74.58;100085.39;107867;1308;22255;-36
2024/01/08 05:55:20;;;;;;;33.70;12.80;;;;;;;-9.60;74.49;100086.05;107827;1308;22255;-39
2024/01/08 05:57:46;;;;;;;32.50;13.60;;;;;;;-9.67;74.70;100086.31;107845;1308;22326;-41
2024/01/08 06:00:12;;;;;;;30.50;12.40;;;;;;;-9.65;74.87;100088.59;107857;1308;23095;-37
2024/01/08 06:02:37;;;;;;;27.20;11.90;;;;;;;-9.60;74.85;100089.45;107845;1308;22251;-38
